sensor_id;sensor_type;location;lat;lon;timestamp;temperature;humidity
64924;HTU21D;51436;44.692;39.214;2024-01-16T00:02:00;9.45;59.20
64924;HTU21D;51436;44.692;39.214;2024-01-16T00:04:27;9.45;59.20
64924;HTU21D;51436;44.692;39.214;2024-01-16T00:06:55;9.44;59.19
64924;HTU21D;51436;44.692;39.214;2024-01-16T00:09:22;9.40;59.25
64924;HTU21D;51436;44.692;39.214;2024-01-16T00:11:49;9.39;59.25
64924;HTU21D;51436;44.692;39.214;2024-01-16T00:14:15;9.41;59.22
64924;HTU21D;51436;44.692;39.214;2024-01-16T00:16:47;9.40;59.19
64924;HTU21D;51436;44.692;39.214;2024-01-16T00:19:14;9.40;59.18
64924;HTU21D;51436;44.692;39.214;2024-01-16T00:21:42;9.42;59.09
64924;HTU21D;51436;44.692;39.214;2024-01-16T00:24:09;9.42;59.11
64924;HTU21D;51436;44.692;39.214;2024-01-16T00:26:36;9.45;59.07
64924;HTU21D;51436;44.692;39.214;2024-01-16T00:29:02;9.45;59.01
64924;HTU21D;51436;44.692;39.214;2024-01-16T00:31:28;9.45;59.03
64924;HTU21D;51436;44.692;39.214;2024-01-16T00:33:55;9.44;59.05
64924;HTU21D;51436;44.692;39.214;2024-01-16T00:36:21;9.40;59.09
64924;HTU21D;51436;44.692;39.214;2024-01-16T00:38:47;9.39;59.08
64924;HTU21D;51436;44.692;39.214;2024-01-16T00:41:14;9.37;59.10
64924;HTU21D;51436;44.692;39.214;2024-01-16T00:43:43;9.35;59.15
64924;HTU21D;51436;44.692;39.214;2024-01-16T00:46:13;9.36;59.14
64924;HTU21D;51436;44.692;39.214;2024-01-16T00:48:39;9.37;59.08
64924;HTU21D;51436;44.692;39.214;2024-01-16T00:51:05;9.37;59.06
64924;HTU21D;51436;44.692;39.214;2024-01-16T00:53:32;9.35;59.08
64924;HTU21D;51436;44.692;39.214;2024-01-16T00:55:58;9.34;59.10
64924;HTU21D;51436;44.692;39.214;2024-01-16T00:58:24;9.37;59.05
64924;HTU21D;51436;44.692;39.214;2024-01-16T01:00:51;9.41;58.96
64924;HTU21D;51436;44.692;39.214;2024-01-16T01:03:17;9.46;58.87
64924;HTU21D;51436;44.692;39.214;2024-01-16T01:05:43;9.54;58.71
64924;HTU21D;51436;44.692;39.214;2024-01-16T01:08:10;9.55;58.67
64924;HTU21D;51436;44.692;39.214;2024-01-16T01:10:36;9.53;58.71
64924;HTU21D;51436;44.692;39.214;2024-01-16T01:13:03;9.49;58.80
64924;HTU21D;51436;44.692;39.214;2024-01-16T01:15:32;9.44;58.90
64924;HTU21D;51436;44.692;39.214;2024-01-16T01:17:58;9.39;58.99
64924;HTU21D;51436;44.692;39.214;2024-01-16T01:20:25;9.34;59.06
64924;HTU21D;51436;44.692;39.214;2024-01-16T01:22:51;9.32;59.11
64924;HTU21D;51436;44.692;39.214;2024-01-16T01:25:17;9.29;59.13
64924;HTU21D;51436;44.692;39.214;2024-01-16T01:27:44;9.29;59.13
64924;HTU21D;51436;44.692;39.214;2024-01-16T01:30:11;9.26;59.12
64924;HTU21D;51436;44.692;39.214;2024-01-16T01:32:38;9.24;59.17
64924;HTU21D;51436;44.692;39.214;2024-01-16T01:35:05;9.27;59.09
64924;HTU21D;51436;44.692;39.214;2024-01-16T01:37:32;9.32;58.98
64924;HTU21D;51436;44.692;39.214;2024-01-16T01:39:58;9.33;58.93
64924;HTU21D;51436;44.692;39.214;2024-01-16T01:42:24;9.34;58.88
64924;HTU21D;51436;44.692;39.214;2024-01-16T01:44:51;9.35;58.86
64924;HTU21D;51436;44.692;39.214;2024-01-16T01:58:47;9.16;59.13
64924;HTU21D;51436;44.692;39.214;2024-01-16T02:01:17;9.15;59.15
64924;HTU21D;51436;44.692;39.214;2024-01-16T02:03:55;9.14;59.16
64924;HTU21D;51436;44.692;39.214;2024-01-16T02:06:45;9.11;59.15
64924;HTU21D;51436;44.692;39.214;2024-01-16T02:09:12;9.11;59.16
64924;HTU21D;51436;44.692;39.214;2024-01-16T02:11:59;9.09;59.16
64924;HTU21D;51436;44.692;39.214;2024-01-16T02:14:49;9.10;59.11
64924;HTU21D;51436;44.692;39.214;2024-01-16T02:17:16;9.11;59.06
64924;HTU21D;51436;44.692;39.214;2024-01-16T02:19:42;9.11;59.02
64924;HTU21D;51436;44.692;39.214;2024-01-16T02:22:16;9.14;59.00
64924;HTU21D;51436;44.692;39.214;2024-01-16T02:24:44;9.14;58.99
64924;HTU21D;51436;44.692;39.214;2024-01-16T02:27:10;9.15;58.93
64924;HTU21D;51436;44.692;39.214;2024-01-16T02:29:41;9.14;58.94
64924;HTU21D;51436;44.692;39.214;2024-01-16T02:32:11;9.11;58.96
64924;HTU21D;51436;44.692;39.214;2024-01-16T02:34:38;9.14;58.93
64924;HTU21D;51436;44.692;39.214;2024-01-16T02:37:05;9.18;58.84
64924;HTU21D;51436;44.692;39.214;2024-01-16T02:39:31;9.20;58.74
64924;HTU21D;51436;44.692;39.214;2024-01-16T02:42:01;9.22;58.70
64924;HTU21D;51436;44.692;39.214;2024-01-16T02:44:27;9.26;58.63
64924;HTU21D;51436;44.692;39.214;2024-01-16T02:46:53;9.31;58.57
64924;HTU21D;51436;44.692;39.214;2024-01-16T02:49:20;9.35;58.47
64924;HTU21D;51436;44.692;39.214;2024-01-16T02:51:56;9.42;58.38
64924;HTU21D;51436;44.692;39.214;2024-01-16T02:54:22;9.49;58.22
64924;HTU21D;51436;44.692;39.214;2024-01-16T02:56:48;9.51;58.21
64924;HTU21D;51436;44.692;39.214;2024-01-16T02:59:17;9.52;58.19
64924;HTU21D;51436;44.692;39.214;2024-01-16T03:01:43;9.53;58.17
64924;HTU21D;51436;44.692;39.214;2024-01-16T03:04:09;9.57;58.13
64924;HTU21D;51436;44.692;39.214;2024-01-16T03:06:36;9.62;58.05
64924;HTU21D;51436;44.692;39.214;2024-01-16T03:09:02;9.62;58.03
64924;HTU21D;51436;44.692;39.214;2024-01-16T03:11:29;9.64;58.02
64924;HTU21D;51436;44.692;39.214;2024-01-16T03:13:58;9.66;57.98
64924;HTU21D;51436;44.692;39.214;2024-01-16T03:16:24;9.69;57.96
64924;HTU21D;51436;44.692;39.214;2024-01-16T03:19:14;9.70;57.95
64924;HTU21D;51436;44.692;39.214;2024-01-16T03:21:40;9.75;57.87
64924;HTU21D;51436;44.692;39.214;2024-01-16T03:24:07;9.74;57.90
64924;HTU21D;51436;44.692;39.214;2024-01-16T03:26:34;9.75;57.90
64924;HTU21D;51436;44.692;39.214;2024-01-16T03:29:01;9.78;57.84
64924;HTU21D;51436;44.692;39.214;2024-01-16T03:31:27;9.78;57.84
64924;HTU21D;51436;44.692;39.214;2024-01-16T03:33:56;9.80;57.87
64924;HTU21D;51436;44.692;39.214;2024-01-16T03:36:23;9.82;57.80
64924;HTU21D;51436;44.692;39.214;2024-01-16T03:38:49;9.90;57.74
64924;HTU21D;51436;44.692;39.214;2024-01-16T03:41:15;9.92;57.69
64924;HTU21D;51436;44.692;39.214;2024-01-16T03:43:42;9.93;57.70
64924;HTU21D;51436;44.692;39.214;2024-01-16T03:46:11;9.91;57.72
64924;HTU21D;51436;44.692;39.214;2024-01-16T03:48:37;9.86;57.80
64924;HTU21D;51436;44.692;39.214;2024-01-16T03:51:09;9.82;57.89
64924;HTU21D;51436;44.692;39.214;2024-01-16T03:53:35;9.80;57.93
64924;HTU21D;51436;44.692;39.214;2024-01-16T03:56:07;9.77;57.96
64924;HTU21D;51436;44.692;39.214;2024-01-16T03:58:34;9.74;58.03
64924;HTU21D;51436;44.692;39.214;2024-01-16T04:01:01;9.70;58.09
64924;HTU21D;51436;44.692;39.214;2024-01-16T04:03:28;9.67;58.12
64924;HTU21D;51436;44.692;39.214;2024-01-16T04:05:54;9.65;58.14
64924;HTU21D;51436;44.692;39.214;2024-01-16T04:08:20;9.62;58.17
64924;HTU21D;51436;44.692;39.214;2024-01-16T04:10:47;9.61;58.19
64924;HTU21D;51436;44.692;39.214;2024-01-16T04:13:13;9.61;58.16
64924;HTU21D;51436;44.692;39.214;2024-01-16T04:15:42;9.56;58.19
64924;HTU21D;51436;44.692;39.214;2024-01-16T04:18:09;9.57;58.19
64924;HTU21D;51436;44.692;39.214;2024-01-16T04:20:36;9.59;58.11
64924;HTU21D;51436;44.692;39.214;2024-01-16T04:23:03;9.59;58.09
64924;HTU21D;51436;44.692;39.214;2024-01-16T04:25:29;9.57;58.12
64924;HTU21D;51436;44.692;39.214;2024-01-16T04:27:55;9.60;58.09
64924;HTU21D;51436;44.692;39.214;2024-01-16T04:30:21;9.61;58.05
64924;HTU21D;51436;44.692;39.214;2024-01-16T04:32:48;9.59;58.06
64924;HTU21D;51436;44.692;39.214;2024-01-16T04:35:14;9.60;58.03
64924;HTU21D;51436;44.692;39.214;2024-01-16T04:37:41;9.61;57.98
64924;HTU21D;51436;44.692;39.214;2024-01-16T04:40:08;9.65;57.91
64924;HTU21D;51436;44.692;39.214;2024-01-16T04:42:34;9.66;57.88
64924;HTU21D;51436;44.692;39.214;2024-01-16T04:45:01;9.71;57.82
64924;HTU21D;51436;44.692;39.214;2024-01-16T04:47:30;9.75;57.74
64924;HTU21D;51436;44.692;39.214;2024-01-16T04:49:57;9.77;57.73
64924;HTU21D;51436;44.692;39.214;2024-01-16T04:52:23;9.82;57.61
64924;HTU21D;51436;44.692;39.214;2024-01-16T04:54:49;9.90;57.48
64924;HTU21D;51436;44.692;39.214;2024-01-16T04:57:16;9.96;57.37
64924;HTU21D;51436;44.692;39.214;2024-01-16T04:59:42;10.11;57.19
64924;HTU21D;51436;44.692;39.214;2024-01-16T05:02:10;10.22;56.97
64924;HTU21D;51436;44.692;39.214;2024-01-16T05:04:39;10.28;56.94
64924;HTU21D;51436;44.692;39.214;2024-01-16T05:07:05;10.37;56.79
64924;HTU21D;51436;44.692;39.214;2024-01-16T05:09:32;10.43;56.74
64924;HTU21D;51436;44.692;39.214;2024-01-16T05:11:58;10.49;56.67
64924;HTU21D;51436;44.692;39.214;2024-01-16T05:14:25;10.53;56.62
64924;HTU21D;51436;44.692;39.214;2024-01-16T05:16:52;10.60;56.57
64924;HTU21D;51436;44.692;39.214;2024-01-16T05:19:18;10.78;56.33
64924;HTU21D;51436;44.692;39.214;2024-01-16T05:21:45;10.87;56.16
64924;HTU21D;51436;44.692;39.214;2024-01-16T05:24:11;10.94;56.13
64924;HTU21D;51436;44.692;39.214;2024-01-16T05:26:38;11.02;56.03
64924;HTU21D;51436;44.692;39.214;2024-01-16T05:37:19;11.13;56.04
64924;HTU21D;51436;44.692;39.214;2024-01-16T05:39:46;11.18;56.08
64924;HTU21D;51436;44.692;39.214;2024-01-16T05:42:13;11.31;55.89
64924;HTU21D;51436;44.692;39.214;2024-01-16T05:44:39;11.38;55.80
64924;HTU21D;51436;44.692;39.214;2024-01-16T05:47:05;11.37;55.79
64924;HTU21D;51436;44.692;39.214;2024-01-16T05:49:32;11.40;55.79
64924;HTU21D;51436;44.692;39.214;2024-01-16T05:51:58;11.45;55.70
64924;HTU21D;51436;44.692;39.214;2024-01-16T05:54:25;11.48;55.73
64924;HTU21D;51436;44.692;39.214;2024-01-16T05:56:51;11.46;55.74
64924;HTU21D;51436;44.692;39.214;2024-01-16T05:59:18;11.47;55.80
64924;HTU21D;51436;44.692;39.214;2024-01-16T06:01:44;11.49;55.76
64924;HTU21D;51436;44.692;39.214;2024-01-16T06:04:10;11.48;55.78
64924;HTU21D;51436;44.692;39.214;2024-01-16T06:06:37;11.56;55.71
64924;HTU21D;51436;44.692;39.214;2024-01-16T06:09:03;11.63;55.60
64924;HTU21D;51436;44.692;39.214;2024-01-16T06:11:34;11.73;55.45
64924;HTU21D;51436;44.692;39.214;2024-01-16T06:14:23;11.74;55.43
64924;HTU21D;51436;44.692;39.214;2024-01-16T06:16:56;11.81;55.39
64924;HTU21D;51436;44.692;39.214;2024-01-16T06:19:25;11.89;55.28
64924;HTU21D;51436;44.692;39.214;2024-01-16T06:21:51;11.91;55.26
64924;HTU21D;51436;44.692;39.214;2024-01-16T06:24:18;11.92;55.25
64924;HTU21D;51436;44.692;39.214;2024-01-16T06:26:44;11.93;55.29
64924;HTU21D;51436;44.692;39.214;2024-01-16T06:29:10;11.98;55.27
64924;HTU21D;51436;44.692;39.214;2024-01-16T06:31:36;12.07;55.10
64924;HTU21D;51436;44.692;39.214;2024-01-16T06:34:04;12.15;55.01
64924;HTU21D;51436;44.692;39.214;2024-01-16T06:36:30;12.17;54.99
64924;HTU21D;51436;44.692;39.214;2024-01-16T06:38:57;12.16;55.07
64924;HTU21D;51436;44.692;39.214;2024-01-16T06:41:23;12.23;55.01
64924;HTU21D;51436;44.692;39.214;2024-01-16T06:43:49;12.30;54.92
64924;HTU21D;51436;44.692;39.214;2024-01-16T06:46:16;12.36;54.84
64924;HTU21D;51436;44.692;39.214;2024-01-16T06:48:42;12.43;54.78
64924;HTU21D;51436;44.692;39.214;2024-01-16T06:51:08;12.48;54.75
64924;HTU21D;51436;44.692;39.214;2024-01-16T06:53:36;12.56;54.68
64924;HTU21D;51436;44.692;39.214;2024-01-16T06:56:05;12.63;54.59
64924;HTU21D;51436;44.692;39.214;2024-01-16T06:58:32;12.70;54.54
64924;HTU21D;51436;44.692;39.214;2024-01-16T07:00:58;12.70;54.59
64924;HTU21D;51436;44.692;39.214;2024-01-16T07:03:26;12.72;54.59
64924;HTU21D;51436;44.692;39.214;2024-01-16T07:05:52;12.77;54.55
64924;HTU21D;51436;44.692;39.214;2024-01-16T07:08:18;12.85;54.48
64924;HTU21D;51436;44.692;39.214;2024-01-16T07:10:45;12.90;54.46
64924;HTU21D;51436;44.692;39.214;2024-01-16T07:13:12;12.96;54.38
64924;HTU21D;51436;44.692;39.214;2024-01-16T07:15:40;12.96;54.39
64924;HTU21D;51436;44.692;39.214;2024-01-16T07:18:06;12.99;54.42
64924;HTU21D;51436;44.692;39.214;2024-01-16T07:20:33;13.07;54.36
64924;HTU21D;51436;44.692;39.214;2024-01-16T07:22:59;13.12;54.30
64924;HTU21D;51436;44.692;39.214;2024-01-16T07:25:26;13.17;54.26
64924;HTU21D;51436;44.692;39.214;2024-01-16T07:27:52;13.21;54.23
64924;HTU21D;51436;44.692;39.214;2024-01-16T07:30:19;13.25;54.17
64924;HTU21D;51436;44.692;39.214;2024-01-16T07:32:45;13.35;54.07
64924;HTU21D;51436;44.692;39.214;2024-01-16T07:35:12;13.43;53.98
64924;HTU21D;51436;44.692;39.214;2024-01-16T07:37:39;13.50;53.92
64924;HTU21D;51436;44.692;39.214;2024-01-16T07:40:06;13.55;53.88
64924;HTU21D;51436;44.692;39.214;2024-01-16T07:42:35;13.63;53.84
64924;HTU21D;51436;44.692;39.214;2024-01-16T07:45:05;13.68;53.81
64924;HTU21D;51436;44.692;39.214;2024-01-16T07:47:35;13.76;53.74
64924;HTU21D;51436;44.692;39.214;2024-01-16T07:50:02;13.84;53.63
64924;HTU21D;51436;44.692;39.214;2024-01-16T07:52:34;13.94;53.56
64924;HTU21D;51436;44.692;39.214;2024-01-16T07:55:03;14.01;53.49
64924;HTU21D;51436;44.692;39.214;2024-01-16T07:57:30;14.09;53.46
64924;HTU21D;51436;44.692;39.214;2024-01-16T07:59:57;14.12;53.43
64924;HTU21D;51436;44.692;39.214;2024-01-16T08:02:31;14.15;53.46
64924;HTU21D;51436;44.692;39.214;2024-01-16T08:04:58;14.21;53.42
64924;HTU21D;51436;44.692;39.214;2024-01-16T08:07:24;14.22;53.44
64924;HTU21D;51436;44.692;39.214;2024-01-16T08:09:51;14.23;53.49
64924;HTU21D;51436;44.692;39.214;2024-01-16T08:12:17;14.26;53.47
64924;HTU21D;51436;44.692;39.214;2024-01-16T08:14:44;14.30;53.38
64924;HTU21D;51436;44.692;39.214;2024-01-16T08:17:10;14.29;53.44
64924;HTU21D;51436;44.692;39.214;2024-01-16T08:19:37;14.28;53.50
64924;HTU21D;51436;44.692;39.214;2024-01-16T08:22:04;14.28;53.54
64924;HTU21D;51436;44.692;39.214;2024-01-16T08:24:31;14.26;53.56
64924;HTU21D;51436;44.692;39.214;2024-01-16T08:26:58;14.25;53.62
64924;HTU21D;51436;44.692;39.214;2024-01-16T08:29:24;14.25;53.63
64924;HTU21D;51436;44.692;39.214;2024-01-16T08:31:51;14.22;53.69
64924;HTU21D;51436;44.692;39.214;2024-01-16T08:34:18;14.23;53.64
64924;HTU21D;51436;44.692;39.214;2024-01-16T08:36:44;14.23;53.65
64924;HTU21D;51436;44.692;39.214;2024-01-16T08:39:11;14.23;53.65
64924;HTU21D;51436;44.692;39.214;2024-01-16T08:41:38;14.22;53.65
64924;HTU21D;51436;44.692;39.214;2024-01-16T08:44:04;14.22;53.66
64924;HTU21D;51436;44.692;39.214;2024-01-16T08:46:30;14.25;53.62
64924;HTU21D;51436;44.692;39.214;2024-01-16T08:48:57;14.35;53.45
64924;HTU21D;51436;44.692;39.214;2024-01-16T08:51:23;14.39;53.36
64924;HTU21D;51436;44.692;39.214;2024-01-16T08:53:52;14.43;53.32
64924;HTU21D;51436;44.692;39.214;2024-01-16T08:56:18;14.44;53.26
64924;HTU21D;51436;44.692;39.214;2024-01-16T08:58:46;14.47;53.30
64924;HTU21D;51436;44.692;39.214;2024-01-16T09:01:15;14.53;53.25
64924;HTU21D;51436;44.692;39.214;2024-01-16T09:03:42;14.69;53.02
64924;HTU21D;51436;44.692;39.214;2024-01-16T09:06:09;14.81;52.81
64924;HTU21D;51436;44.692;39.214;2024-01-16T09:20:03;15.07;52.71
64924;HTU21D;51436;44.692;39.214;2024-01-16T09:22:30;15.09;52.67
64924;HTU21D;51436;44.692;39.214;2024-01-16T09:24:56;15.13;52.69
64924;HTU21D;51436;44.692;39.214;2024-01-16T09:27:23;15.18;52.64
64924;HTU21D;51436;44.692;39.214;2024-01-16T09:29:49;15.25;52.60
64924;HTU21D;51436;44.692;39.214;2024-01-16T09:32:18;15.24;52.60
64924;HTU21D;51436;44.692;39.214;2024-01-16T09:34:45;15.24;52.65
64924;HTU21D;51436;44.692;39.214;2024-01-16T09:37:11;15.28;52.63
64924;HTU21D;51436;44.692;39.214;2024-01-16T09:40:03;15.36;52.53
64924;HTU21D;51436;44.692;39.214;2024-01-16T09:42:31;15.39;52.48
64924;HTU21D;51436;44.692;39.214;2024-01-16T09:45:00;15.45;52.44
64924;HTU21D;51436;44.692;39.214;2024-01-16T09:47:30;15.53;52.34
64924;HTU21D;51436;44.692;39.214;2024-01-16T09:50:00;15.58;52.29
64924;HTU21D;51436;44.692;39.214;2024-01-16T09:52:29;15.65;52.24
64924;HTU21D;51436;44.692;39.214;2024-01-16T09:55:07;15.71;52.12
64924;HTU21D;51436;44.692;39.214;2024-01-16T09:57:45;15.75;52.11
64924;HTU21D;51436;44.692;39.214;2024-01-16T10:00:12;15.78;52.15
64924;HTU21D;51436;44.692;39.214;2024-01-16T10:02:40;15.78;52.14
64924;HTU21D;51436;44.692;39.214;2024-01-16T10:05:11;15.80;52.17
64924;HTU21D;51436;44.692;39.214;2024-01-16T10:07:38;15.81;52.20
64924;HTU21D;51436;44.692;39.214;2024-01-16T10:10:08;15.83;52.17
64924;HTU21D;51436;44.692;39.214;2024-01-16T10:12:38;15.84;52.17
64924;HTU21D;51436;44.692;39.214;2024-01-16T10:15:19;15.83;52.12
64924;HTU21D;51436;44.692;39.214;2024-01-16T10:17:56;15.81;52.25
64924;HTU21D;51436;44.692;39.214;2024-01-16T10:20:35;15.78;52.24
64924;HTU21D;51436;44.692;39.214;2024-01-16T10:23:02;15.75;52.30
64924;HTU21D;51436;44.692;39.214;2024-01-16T10:25:29;15.66;52.41
64924;HTU21D;51436;44.692;39.214;2024-01-16T10:28:05;15.57;52.46
64924;HTU21D;51436;44.692;39.214;2024-01-16T10:30:33;15.49;52.59
64924;HTU21D;51436;44.692;39.214;2024-01-16T10:33:18;15.42;52.65
64924;HTU21D;51436;44.692;39.214;2024-01-16T10:35:48;15.33;52.79
64924;HTU21D;51436;44.692;39.214;2024-01-16T10:38:20;15.29;52.82
64924;HTU21D;51436;44.692;39.214;2024-01-16T10:41:05;15.23;52.85
64924;HTU21D;51436;44.692;39.214;2024-01-16T10:43:32;15.10;52.97
64924;HTU21D;51436;44.692;39.214;2024-01-16T10:46:14;14.95;53.10
64924;HTU21D;51436;44.692;39.214;2024-01-16T10:48:58;14.86;53.33
64924;HTU21D;51436;44.692;39.214;2024-01-16T10:51:30;14.78;53.43
64924;HTU21D;51436;44.692;39.214;2024-01-16T10:54:04;14.69;53.49
64924;HTU21D;51436;44.692;39.214;2024-01-16T10:56:46;14.59;53.67
64924;HTU21D;51436;44.692;39.214;2024-01-16T10:59:46;14.53;53.77
64924;HTU21D;51436;44.692;39.214;2024-01-16T11:02:15;14.49;53.80
64924;HTU21D;51436;44.692;39.214;2024-01-16T11:04:46;14.44;53.83
64924;HTU21D;51436;44.692;39.214;2024-01-16T11:07:14;14.38;53.93
64924;HTU21D;51436;44.692;39.214;2024-01-16T11:09:44;14.34;54.01
64924;HTU21D;51436;44.692;39.214;2024-01-16T11:12:10;14.26;54.13
64924;HTU21D;51436;44.692;39.214;2024-01-16T11:14:44;14.24;54.13
64924;HTU21D;51436;44.692;39.214;2024-01-16T11:17:12;14.25;54.12
64924;HTU21D;51436;44.692;39.214;2024-01-16T11:19:45;14.26;54.11
64924;HTU21D;51436;44.692;39.214;2024-01-16T11:22:13;14.22;54.16
64924;HTU21D;51436;44.692;39.214;2024-01-16T11:24:40;14.17;54.26
64924;HTU21D;51436;44.692;39.214;2024-01-16T11:27:25;14.12;54.33
64924;HTU21D;51436;44.692;39.214;2024-01-16T11:30:02;14.08;54.42
64924;HTU21D;51436;44.692;39.214;2024-01-16T11:32:36;14.01;54.52
64924;HTU21D;51436;44.692;39.214;2024-01-16T11:35:04;13.90;54.66
64924;HTU21D;51436;44.692;39.214;2024-01-16T11:37:31;13.81;54.81
64924;HTU21D;51436;44.692;39.214;2024-01-16T11:42:48;13.65;55.00
64924;HTU21D;51436;44.692;39.214;2024-01-16T11:50:37;13.48;55.24
64924;HTU21D;51436;44.692;39.214;2024-01-16T11:53:04;13.44;55.26
64924;HTU21D;51436;44.692;39.214;2024-01-16T11:55:33;13.38;55.35
64924;HTU21D;51436;44.692;39.214;2024-01-16T12:01:12;13.24;55.53
64924;HTU21D;51436;44.692;39.214;2024-01-16T12:03:39;13.19;55.65
64924;HTU21D;51436;44.692;39.214;2024-01-16T12:06:05;13.10;55.78
64924;HTU21D;51436;44.692;39.214;2024-01-16T12:08:34;13.02;55.90
64924;HTU21D;51436;44.692;39.214;2024-01-16T12:11:04;12.91;56.07
64924;HTU21D;51436;44.692;39.214;2024-01-16T12:13:30;12.79;56.25
64924;HTU21D;51436;44.692;39.214;2024-01-16T12:16:04;12.59;56.56
64924;HTU21D;51436;44.692;39.214;2024-01-16T12:18:30;12.41;56.93
64924;HTU21D;51436;44.692;39.214;2024-01-16T12:21:08;12.18;57.20
64924;HTU21D;51436;44.692;39.214;2024-01-16T12:23:35;12.00;57.58
64924;HTU21D;51436;44.692;39.214;2024-01-16T12:26:02;11.83;57.81
64924;HTU21D;51436;44.692;39.214;2024-01-16T12:28:29;11.69;58.00
64924;HTU21D;51436;44.692;39.214;2024-01-16T12:30:57;11.59;58.15
64924;HTU21D;51436;44.692;39.214;2024-01-16T12:33:24;11.47;58.33
64924;HTU21D;51436;44.692;39.214;2024-01-16T12:35:50;11.33;58.51
64924;HTU21D;51436;44.692;39.214;2024-01-16T12:38:27;11.23;58.67
64924;HTU21D;51436;44.692;39.214;2024-01-16T12:40:53;11.15;58.79
64924;HTU21D;51436;44.692;39.214;2024-01-16T12:43:20;11.07;58.87
64924;HTU21D;51436;44.692;39.214;2024-01-16T12:45:55;10.99;58.93
64924;HTU21D;51436;44.692;39.214;2024-01-16T12:59:52;10.51;59.69
64924;HTU21D;51436;44.692;39.214;2024-01-16T13:02:23;10.46;59.73
64924;HTU21D;51436;44.692;39.214;2024-01-16T13:04:58;10.46;59.73
64924;HTU21D;51436;44.692;39.214;2024-01-16T13:07:25;10.46;59.77
64924;HTU21D;51436;44.692;39.214;2024-01-16T13:10:13;10.45;59.71
64924;HTU21D;51436;44.692;39.214;2024-01-16T13:12:44;10.44;59.82
64924;HTU21D;51436;44.692;39.214;2024-01-16T13:15:11;10.43;59.86
64924;HTU21D;51436;44.692;39.214;2024-01-16T13:17:43;10.39;59.96
64924;HTU21D;51436;44.692;39.214;2024-01-16T13:20:10;10.37;60.01
64924;HTU21D;51436;44.692;39.214;2024-01-16T13:22:38;10.38;60.02
64924;HTU21D;51436;44.692;39.214;2024-01-16T13:25:06;10.39;59.99
64924;HTU21D;51436;44.692;39.214;2024-01-16T13:27:33;10.37;60.09
64924;HTU21D;51436;44.692;39.214;2024-01-16T13:29:59;10.36;60.13
64924;HTU21D;51436;44.692;39.214;2024-01-16T13:32:26;10.34;60.19
64924;HTU21D;51436;44.692;39.214;2024-01-16T13:34:52;10.31;60.30
64924;HTU21D;51436;44.692;39.214;2024-01-16T13:37:20;10.31;60.31
64924;HTU21D;51436;44.692;39.214;2024-01-16T13:39:48;10.29;60.41
64924;HTU21D;51436;44.692;39.214;2024-01-16T13:42:14;10.26;60.48
64924;HTU21D;51436;44.692;39.214;2024-01-16T13:44:44;10.23;60.57
64924;HTU21D;51436;44.692;39.214;2024-01-16T13:47:13;10.23;60.60
64924;HTU21D;51436;44.692;39.214;2024-01-16T13:49:40;10.23;60.64
64924;HTU21D;51436;44.692;39.214;2024-01-16T13:52:07;10.22;60.69
64924;HTU21D;51436;44.692;39.214;2024-01-16T13:54:36;10.18;60.74
64924;HTU21D;51436;44.692;39.214;2024-01-16T13:57:04;10.16;60.83
64924;HTU21D;51436;44.692;39.214;2024-01-16T13:59:31;10.19;60.83
64924;HTU21D;51436;44.692;39.214;2024-01-16T14:01:57;10.21;60.83
64924;HTU21D;51436;44.692;39.214;2024-01-16T14:04:24;10.18;60.90
64924;HTU21D;51436;44.692;39.214;2024-01-16T14:06:50;10.14;60.98
64924;HTU21D;51436;44.692;39.214;2024-01-16T14:09:17;10.13;61.03
64924;HTU21D;51436;44.692;39.214;2024-01-16T14:11:45;10.10;61.11
64924;HTU21D;51436;44.692;39.214;2024-01-16T14:14:11;10.09;61.16
64924;HTU21D;51436;44.692;39.214;2024-01-16T14:16:39;10.09;61.18
64924;HTU21D;51436;44.692;39.214;2024-01-16T14:19:06;10.11;61.21
64924;HTU21D;51436;44.692;39.214;2024-01-16T14:21:32;10.10;61.24
64924;HTU21D;51436;44.692;39.214;2024-01-16T14:24:03;10.10;61.25
64924;HTU21D;51436;44.692;39.214;2024-01-16T14:26:29;10.12;61.28
64924;HTU21D;51436;44.692;39.214;2024-01-16T14:28:56;10.13;61.27
64924;HTU21D;51436;44.692;39.214;2024-01-16T14:31:22;10.11;61.29
64924;HTU21D;51436;44.692;39.214;2024-01-16T14:33:49;10.13;61.35
64924;HTU21D;51436;44.692;39.214;2024-01-16T14:36:15;10.10;61.44
64924;HTU21D;51436;44.692;39.214;2024-01-16T14:38:42;10.07;61.54
64924;HTU21D;51436;44.692;39.214;2024-01-16T14:41:09;10.08;61.58
64924;HTU21D;51436;44.692;39.214;2024-01-16T14:43:35;10.09;61.59
64924;HTU21D;51436;44.692;39.214;2024-01-16T14:46:02;10.11;61.56
64924;HTU21D;51436;44.692;39.214;2024-01-16T14:48:29;10.12;61.57
64924;HTU21D;51436;44.692;39.214;2024-01-16T14:50:58;10.18;61.51
64924;HTU21D;51436;44.692;39.214;2024-01-16T14:53:24;10.16;61.59
64924;HTU21D;51436;44.692;39.214;2024-01-16T14:55:51;10.16;61.62
64924;HTU21D;51436;44.692;39.214;2024-01-16T14:58:20;10.14;61.70
64924;HTU21D;51436;44.692;39.214;2024-01-16T15:00:50;10.15;61.75
64924;HTU21D;51436;44.692;39.214;2024-01-16T15:03:18;10.15;61.76
64924;HTU21D;51436;44.692;39.214;2024-01-16T15:05:48;10.14;61.83
64924;HTU21D;51436;44.692;39.214;2024-01-16T15:08:14;10.12;61.92
64924;HTU21D;51436;44.692;39.214;2024-01-16T15:10:41;10.11;61.99
64924;HTU21D;51436;44.692;39.214;2024-01-16T15:13:08;10.14;61.96
64924;HTU21D;51436;44.692;39.214;2024-01-16T15:15:34;10.18;61.92
64924;HTU21D;51436;44.692;39.214;2024-01-16T15:18:02;10.18;61.95
64924;HTU21D;51436;44.692;39.214;2024-01-16T15:20:29;10.19;61.99
64924;HTU21D;51436;44.692;39.214;2024-01-16T15:22:55;10.18;62.03
64924;HTU21D;51436;44.692;39.214;2024-01-16T15:25:22;10.15;62.11
64924;HTU21D;51436;44.692;39.214;2024-01-16T15:27:51;10.14;62.16
64924;HTU21D;51436;44.692;39.214;2024-01-16T15:30:22;10.14;62.20
64924;HTU21D;51436;44.692;39.214;2024-01-16T15:32:51;10.14;62.22
64924;HTU21D;51436;44.692;39.214;2024-01-16T15:35:17;10.14;62.21
64924;HTU21D;51436;44.692;39.214;2024-01-16T15:37:45;10.19;62.22
64924;HTU21D;51436;44.692;39.214;2024-01-16T15:40:12;10.18;62.25
64924;HTU21D;51436;44.692;39.214;2024-01-16T15:42:41;10.19;62.28
64924;HTU21D;51436;44.692;39.214;2024-01-16T15:45:08;10.19;62.29
64924;HTU21D;51436;44.692;39.214;2024-01-16T15:47:38;10.19;62.31
64924;HTU21D;51436;44.692;39.214;2024-01-16T15:50:05;10.20;62.34
64924;HTU21D;51436;44.692;39.214;2024-01-16T15:52:32;10.19;62.36
64924;HTU21D;51436;44.692;39.214;2024-01-16T15:54:59;10.16;62.45
64924;HTU21D;51436;44.692;39.214;2024-01-16T15:57:26;10.14;62.51
64924;HTU21D;51436;44.692;39.214;2024-01-16T15:59:52;10.13;62.57
64924;HTU21D;51436;44.692;39.214;2024-01-16T16:02:19;10.12;62.61
64924;HTU21D;51436;44.692;39.214;2024-01-16T16:04:46;10.12;62.63
64924;HTU21D;51436;44.692;39.214;2024-01-16T16:07:13;10.11;62.66